sensor_id;sensor_type;location;lat;lon;timestamp;temperature;humidity
2783;DHT22;1399;47.072;15.452;2022-10-28T00:00:50;14.60;83.90
2783;DHT22;1399;47.072;15.452;2022-10-28T00:03:16;14.50;83.70
2783;DHT22;1399;47.072;15.452;2022-10-28T00:05:42;14.50;83.70
2783;DHT22;1399;47.072;15.452;2022-10-28T00:08:10;14.50;83.60
2783;DHT22;1399;47.072;15.452;2022-10-28T00:10:36;14.50;83.60
2783;DHT22;1399;47.072;15.452;2022-10-28T00:13:02;14.50;83.60
2783;DHT22;1399;47.072;15.452;2022-10-28T00:15:28;14.50;83.50
2783;DHT22;1399;47.072;15.452;2022-10-28T00:17:54;14.50;83.50
2783;DHT22;1399;47.072;15.452;2022-10-28T00:20:19;14.50;83.40
2783;DHT22;1399;47.072;15.452;2022-10-28T00:22:45;14.50;83.40
2783;DHT22;1399;47.072;15.452;2022-10-28T00:25:11;14.40;83.30
2783;DHT22;1399;47.072;15.452;2022-10-28T00:27:36;14.40;83.30
2783;DHT22;1399;47.072;15.452;2022-10-28T00:30:03;14.40;83.30
2783;DHT22;1399;47.072;15.452;2022-10-28T00:32:30;14.40;83.20
2783;DHT22;1399;47.072;15.452;2022-10-28T00:34:56;14.40;83.20
2783;DHT22;1399;47.072;15.452;2022-10-28T00:37:22;14.40;83.20
2783;DHT22;1399;47.072;15.452;2022-10-28T00:39:48;14.40;83.10
2783;DHT22;1399;47.072;15.452;2022-10-28T00:42:19;14.40;83.10
2783;DHT22;1399;47.072;15.452;2022-10-28T00:44:57;14.40;83.00
2783;DHT22;1399;47.072;15.452;2022-10-28T00:47:39;14.40;83.00
2783;DHT22;1399;47.072;15.452;2022-10-28T00:53:02;14.30;82.80
2783;DHT22;1399;47.072;15.452;2022-10-28T00:55:31;14.30;82.70
2783;DHT22;1399;47.072;15.452;2022-10-28T00:57:58;14.30;82.70
2783;DHT22;1399;47.072;15.452;2022-10-28T01:00:25;14.30;83.50
2783;DHT22;1399;47.072;15.452;2022-10-28T01:02:51;14.30;82.60
2783;DHT22;1399;47.072;15.452;2022-10-28T01:05:24;14.30;82.60
2783;DHT22;1399;47.072;15.452;2022-10-28T01:07:52;14.30;82.50
2783;DHT22;1399;47.072;15.452;2022-10-28T01:10:21;14.30;82.50
2783;DHT22;1399;47.072;15.452;2022-10-28T01:13:09;14.30;82.40
2783;DHT22;1399;47.072;15.452;2022-10-28T01:31:28;14.20;82.00
2783;DHT22;1399;47.072;15.452;2022-10-28T01:39:50;14.20;81.80
2783;DHT22;1399;47.072;15.452;2022-10-28T01:42:28;14.20;81.80
2783;DHT22;1399;47.072;15.452;2022-10-28T01:47:52;14.10;81.60
2783;DHT22;1399;47.072;15.452;2022-10-28T01:50:37;14.10;81.50
2783;DHT22;1399;47.072;15.452;2022-10-28T01:53:13;14.10;81.50
2783;DHT22;1399;47.072;15.452;2022-10-28T01:55:45;14.10;81.60
2783;DHT22;1399;47.072;15.452;2022-10-28T01:58:16;14.10;81.50
2783;DHT22;1399;47.072;15.452;2022-10-28T02:00:44;14.10;81.50
2783;DHT22;1399;47.072;15.452;2022-10-28T02:03:11;14.10;81.50
2783;DHT22;1399;47.072;15.452;2022-10-28T02:05:54;14.10;81.40
2783;DHT22;1399;47.072;15.452;2022-10-28T02:09:14;14.10;81.50
2783;DHT22;1399;47.072;15.452;2022-10-28T02:13:54;14.00;81.30
2783;DHT22;1399;47.072;15.452;2022-10-28T02:19:09;14.00;81.20
2783;DHT22;1399;47.072;15.452;2022-10-28T02:24:46;14.00;81.20
2783;DHT22;1399;47.072;15.452;2022-10-28T02:27:27;14.00;81.10
2783;DHT22;1399;47.072;15.452;2022-10-28T02:30:21;14.00;81.10
2783;DHT22;1399;47.072;15.452;2022-10-28T02:32:56;14.00;81.00
2783;DHT22;1399;47.072;15.452;2022-10-28T02:35:30;14.00;81.00
2783;DHT22;1399;47.072;15.452;2022-10-28T02:37:59;14.00;80.90
2783;DHT22;1399;47.072;15.452;2022-10-28T02:40:28;14.00;80.80
2783;DHT22;1399;47.072;15.452;2022-10-28T02:43:00;14.00;80.80
2783;DHT22;1399;47.072;15.452;2022-10-28T02:45:48;13.90;80.70
2783;DHT22;1399;47.072;15.452;2022-10-28T02:48:21;13.90;80.60
2783;DHT22;1399;47.072;15.452;2022-10-28T02:50:53;13.90;80.40
2783;DHT22;1399;47.072;15.452;2022-10-28T02:53:28;13.90;80.40
2783;DHT22;1399;47.072;15.452;2022-10-28T02:55:56;13.90;80.40
2783;DHT22;1399;47.072;15.452;2022-10-28T02:58:24;13.90;80.20
2783;DHT22;1399;47.072;15.452;2022-10-28T03:00:49;13.90;80.20
2783;DHT22;1399;47.072;15.452;2022-10-28T03:03:16;13.90;80.20
2783;DHT22;1399;47.072;15.452;2022-10-28T03:05:42;13.90;80.10
2783;DHT22;1399;47.072;15.452;2022-10-28T03:08:07;13.90;80.10
2783;DHT22;1399;47.072;15.452;2022-10-28T03:10:34;13.90;80.10
2783;DHT22;1399;47.072;15.452;2022-10-28T03:12:59;13.80;80.00
2783;DHT22;1399;47.072;15.452;2022-10-28T03:15:25;13.80;79.90
2783;DHT22;1399;47.072;15.452;2022-10-28T03:17:51;13.80;79.90
2783;DHT22;1399;47.072;15.452;2022-10-28T03:20:16;13.80;79.90
2783;DHT22;1399;47.072;15.452;2022-10-28T03:22:42;13.80;79.80
2783;DHT22;1399;47.072;15.452;2022-10-28T03:25:09;13.80;79.80
2783;DHT22;1399;47.072;15.452;2022-10-28T03:27:37;13.80;79.80
2783;DHT22;1399;47.072;15.452;2022-10-28T03:30:03;13.80;79.70
2783;DHT22;1399;47.072;15.452;2022-10-28T03:32:29;13.80;79.60
2783;DHT22;1399;47.072;15.452;2022-10-28T03:34:55;13.80;79.60
2783;DHT22;1399;47.072;15.452;2022-10-28T03:37:21;13.70;79.50
2783;DHT22;1399;47.072;15.452;2022-10-28T03:39:46;13.80;79.50
2783;DHT22;1399;47.072;15.452;2022-10-28T03:42:12;13.70;79.40
2783;DHT22;1399;47.072;15.452;2022-10-28T03:44:38;13.70;79.30
2783;DHT22;1399;47.072;15.452;2022-10-28T03:47:03;13.70;79.30
2783;DHT22;1399;47.072;15.452;2022-10-28T03:49:29;13.70;79.30
2783;DHT22;1399;47.072;15.452;2022-10-28T03:51:55;13.70;79.20
2783;DHT22;1399;47.072;15.452;2022-10-28T03:54:21;13.70;79.20
2783;DHT22;1399;47.072;15.452;2022-10-28T03:56:46;13.70;79.20
2783;DHT22;1399;47.072;15.452;2022-10-28T03:59:12;13.70;79.00
2783;DHT22;1399;47.072;15.452;2022-10-28T04:01:38;13.70;79.00
2783;DHT22;1399;47.072;15.452;2022-10-28T04:04:03;13.70;79.00
2783;DHT22;1399;47.072;15.452;2022-10-28T04:06:29;13.70;78.90
2783;DHT22;1399;47.072;15.452;2022-10-28T04:08:55;13.60;78.70
2783;DHT22;1399;47.072;15.452;2022-10-28T04:11:21;13.60;78.70
2783;DHT22;1399;47.072;15.452;2022-10-28T04:13:46;13.60;78.60
2783;DHT22;1399;47.072;15.452;2022-10-28T04:16:12;13.60;78.70
2783;DHT22;1399;47.072;15.452;2022-10-28T04:18:38;13.60;78.60
2783;DHT22;1399;47.072;15.452;2022-10-28T04:21:04;13.60;78.60
2783;DHT22;1399;47.072;15.452;2022-10-28T04:23:30;13.60;78.50
2783;DHT22;1399;47.072;15.452;2022-10-28T04:25:56;13.60;78.50
2783;DHT22;1399;47.072;15.452;2022-10-28T04:28:22;13.60;78.40
2783;DHT22;1399;47.072;15.452;2022-10-28T04:30:51;13.60;78.40
2783;DHT22;1399;47.072;15.452;2022-10-28T04:33:17;13.60;78.40
2783;DHT22;1399;47.072;15.452;2022-10-28T04:35:43;13.60;78.40
2783;DHT22;1399;47.072;15.452;2022-10-28T04:38:10;13.50;78.20
2783;DHT22;1399;47.072;15.452;2022-10-28T04:40:36;13.60;78.20
2783;DHT22;1399;47.072;15.452;2022-10-28T04:43:02;13.50;78.10
2783;DHT22;1399;47.072;15.452;2022-10-28T04:45:28;13.50;78.00
2783;DHT22;1399;47.072;15.452;2022-10-28T04:47:56;13.50;78.00
2783;DHT22;1399;47.072;15.452;2022-10-28T04:50:22;13.50;77.90
2783;DHT22;1399;47.072;15.452;2022-10-28T04:52:48;13.50;77.90
2783;DHT22;1399;47.072;15.452;2022-10-28T04:55:14;13.50;77.90
2783;DHT22;1399;47.072;15.452;2022-10-28T04:57:39;13.50;77.90
2783;DHT22;1399;47.072;15.452;2022-10-28T05:00:05;13.50;77.80
2783;DHT22;1399;47.072;15.452;2022-10-28T05:02:32;13.50;77.70
2783;DHT22;1399;47.072;15.452;2022-10-28T05:04:57;13.50;77.70
2783;DHT22;1399;47.072;15.452;2022-10-28T05:07:27;13.50;77.60
2783;DHT22;1399;47.072;15.452;2022-10-28T05:09:53;13.50;77.60
2783;DHT22;1399;47.072;15.452;2022-10-28T05:12:19;13.50;77.60
2783;DHT22;1399;47.072;15.452;2022-10-28T05:14:45;13.40;77.50
2783;DHT22;1399;47.072;15.452;2022-10-28T05:17:11;13.40;77.50
2783;DHT22;1399;47.072;15.452;2022-10-28T05:19:37;13.40;77.50
2783;DHT22;1399;47.072;15.452;2022-10-28T05:22:03;13.40;77.40
2783;DHT22;1399;47.072;15.452;2022-10-28T05:24:28;13.40;77.40
2783;DHT22;1399;47.072;15.452;2022-10-28T05:26:54;13.40;77.30
2783;DHT22;1399;47.072;15.452;2022-10-28T05:29:20;13.40;77.20
2783;DHT22;1399;47.072;15.452;2022-10-28T05:31:46;13.40;77.20
2783;DHT22;1399;47.072;15.452;2022-10-28T05:34:11;13.40;77.20
2783;DHT22;1399;47.072;15.452;2022-10-28T05:36:37;13.40;77.20
2783;DHT22;1399;47.072;15.452;2022-10-28T05:39:03;13.40;77.20
2783;DHT22;1399;47.072;15.452;2022-10-28T05:41:30;13.40;77.10
2783;DHT22;1399;47.072;15.452;2022-10-28T05:43:55;13.40;77.10
2783;DHT22;1399;47.072;15.452;2022-10-28T05:46:21;13.40;77.10
2783;DHT22;1399;47.072;15.452;2022-10-28T05:48:47;13.40;77.10
2783;DHT22;1399;47.072;15.452;2022-10-28T05:51:13;13.40;77.00
2783;DHT22;1399;47.072;15.452;2022-10-28T05:53:39;13.40;76.90
2783;DHT22;1399;47.072;15.452;2022-10-28T05:56:07;13.40;76.90
2783;DHT22;1399;47.072;15.452;2022-10-28T05:58:33;13.40;76.90
2783;DHT22;1399;47.072;15.452;2022-10-28T06:00:59;13.50;76.90
2783;DHT22;1399;47.072;15.452;2022-10-28T06:03:25;13.50;76.90
2783;DHT22;1399;47.072;15.452;2022-10-28T06:05:51;13.50;76.90
2783;DHT22;1399;47.072;15.452;2022-10-28T06:08:16;13.50;76.80
2783;DHT22;1399;47.072;15.452;2022-10-28T06:10:49;13.50;76.70
2783;DHT22;1399;47.072;15.452;2022-10-28T06:13:15;13.50;76.60
2783;DHT22;1399;47.072;15.452;2022-10-28T06:15:41;13.50;76.60
2783;DHT22;1399;47.072;15.452;2022-10-28T06:18:07;13.50;76.60
2783;DHT22;1399;47.072;15.452;2022-10-28T06:20:33;13.50;76.60
2783;DHT22;1399;47.072;15.452;2022-10-28T06:22:58;13.50;76.50
2783;DHT22;1399;47.072;15.452;2022-10-28T06:25:25;13.50;76.40
2783;DHT22;1399;47.072;15.452;2022-10-28T06:27:56;13.50;76.50
2783;DHT22;1399;47.072;15.452;2022-10-28T06:30:23;13.60;76.60
2783;DHT22;1399;47.072;15.452;2022-10-28T06:32:49;13.60;76.50
2783;DHT22;1399;47.072;15.452;2022-10-28T06:35:16;13.60;76.50
2783;DHT22;1399;47.072;15.452;2022-10-28T06:37:42;13.60;76.40
2783;DHT22;1399;47.072;15.452;2022-10-28T06:40:08;13.60;76.40
2783;DHT22;1399;47.072;15.452;2022-10-28T06:42:34;13.60;76.40
2783;DHT22;1399;47.072;15.452;2022-10-28T06:44:59;13.70;76.50
2783;DHT22;1399;47.072;15.452;2022-10-28T06:47:25;13.70;76.50
2783;DHT22;1399;47.072;15.452;2022-10-28T06:49:51;13.70;76.40
2783;DHT22;1399;47.072;15.452;2022-10-28T06:52:16;13.70;76.40
2783;DHT22;1399;47.072;15.452;2022-10-28T06:54:42;13.70;76.30
2783;DHT22;1399;47.072;15.452;2022-10-28T06:57:09;13.80;76.40
2783;DHT22;1399;47.072;15.452;2022-10-28T06:59:35;13.80;76.40
2783;DHT22;1399;47.072;15.452;2022-10-28T07:02:01;13.80;76.40
2783;DHT22;1399;47.072;15.452;2022-10-28T07:04:28;13.80;76.40
2783;DHT22;1399;47.072;15.452;2022-10-28T07:06:57;13.90;76.50
2783;DHT22;1399;47.072;15.452;2022-10-28T07:09:23;13.90;76.50
2783;DHT22;1399;47.072;15.452;2022-10-28T07:11:50;13.90;76.50
2783;DHT22;1399;47.072;15.452;2022-10-28T07:14:15;13.90;76.50
2783;DHT22;1399;47.072;15.452;2022-10-28T07:16:41;14.00;76.60
2783;DHT22;1399;47.072;15.452;2022-10-28T07:19:07;14.00;76.60
2783;DHT22;1399;47.072;15.452;2022-10-28T07:21:34;14.00;76.60
2783;DHT22;1399;47.072;15.452;2022-10-28T07:24:00;14.00;76.60
2783;DHT22;1399;47.072;15.452;2022-10-28T07:26:26;14.10;76.80
2783;DHT22;1399;47.072;15.452;2022-10-28T07:28:52;14.10;76.80
2783;DHT22;1399;47.072;15.452;2022-10-28T07:31:18;14.10;76.90
2783;DHT22;1399;47.072;15.452;2022-10-28T07:33:44;14.20;77.00
2783;DHT22;1399;47.072;15.452;2022-10-28T07:36:10;14.20;76.90
2783;DHT22;1399;47.072;15.452;2022-10-28T07:38:36;14.20;76.90
2783;DHT22;1399;47.072;15.452;2022-10-28T07:41:07;14.30;77.00
2783;DHT22;1399;47.072;15.452;2022-10-28T07:43:37;14.30;77.00
2783;DHT22;1399;47.072;15.452;2022-10-28T07:46:04;14.30;77.00
2783;DHT22;1399;47.072;15.452;2022-10-28T07:48:30;14.40;77.10
2783;DHT22;1399;47.072;15.452;2022-10-28T07:50:59;14.40;77.20
2783;DHT22;1399;47.072;15.452;2022-10-28T07:53:25;14.40;77.20
2783;DHT22;1399;47.072;15.452;2022-10-28T07:55:55;14.40;77.20
2783;DHT22;1399;47.072;15.452;2022-10-28T07:58:21;14.50;77.40
2783;DHT22;1399;47.072;15.452;2022-10-28T08:00:47;14.50;78.20
2783;DHT22;1399;47.072;15.452;2022-10-28T08:03:13;14.50;77.30
2783;DHT22;1399;47.072;15.452;2022-10-28T08:05:38;14.50;77.30
2783;DHT22;1399;47.072;15.452;2022-10-28T08:08:04;14.60;77.40
2783;DHT22;1399;47.072;15.452;2022-10-28T08:10:30;14.60;77.40
2783;DHT22;1399;47.072;15.452;2022-10-28T08:12:56;14.70;77.50
2783;DHT22;1399;47.072;15.452;2022-10-28T08:15:25;14.70;77.60
2783;DHT22;1399;47.072;15.452;2022-10-28T08:17:54;14.70;77.60
2783;DHT22;1399;47.072;15.452;2022-10-28T08:20:20;14.70;77.60
2783;DHT22;1399;47.072;15.452;2022-10-28T08:22:46;14.80;77.70
2783;DHT22;1399;47.072;15.452;2022-10-28T08:25:12;14.80;77.60
2783;DHT22;1399;47.072;15.452;2022-10-28T08:27:37;14.90;77.80
2783;DHT22;1399;47.072;15.452;2022-10-28T08:30:05;14.90;77.80
2783;DHT22;1399;47.072;15.452;2022-10-28T08:32:31;14.90;77.80
2783;DHT22;1399;47.072;15.452;2022-10-28T08:34:57;15.00;77.90
2783;DHT22;1399;47.072;15.452;2022-10-28T08:37:22;15.00;78.00
2783;DHT22;1399;47.072;15.452;2022-10-28T08:39:49;15.00;77.90
2783;DHT22;1399;47.072;15.452;2022-10-28T08:42:38;15.00;77.90
2783;DHT22;1399;47.072;15.452;2022-10-28T08:45:36;15.00;77.90
2783;DHT22;1399;47.072;15.452;2022-10-28T08:48:27;15.10;78.10
2783;DHT22;1399;47.072;15.452;2022-10-28T08:51:13;15.20;77.90
2783;DHT22;1399;47.072;15.452;2022-10-28T08:53:46;15.40;77.60
2783;DHT22;1399;47.072;15.452;2022-10-28T08:56:30;15.50;77.30
2783;DHT22;1399;47.072;15.452;2022-10-28T08:59:00;15.60;77.10
2783;DHT22;1399;47.072;15.452;2022-10-28T09:04:55;15.60;76.90
2783;DHT22;1399;47.072;15.452;2022-10-28T09:07:02;15.60;77.00
2783;DHT22;1399;47.072;15.452;2022-10-28T09:09:28;15.60;77.20
2783;DHT22;1399;47.072;15.452;2022-10-28T09:17:19;15.70;77.40
2783;DHT22;1399;47.072;15.452;2022-10-28T09:19:49;15.90;77.20
2783;DHT22;1399;47.072;15.452;2022-10-28T09:22:26;16.00;76.90
2783;DHT22;1399;47.072;15.452;2022-10-28T09:25:04;16.00;76.70
2783;DHT22;1399;47.072;15.452;2022-10-28T09:36:34;16.00;77.20
2783;DHT22;1399;47.072;15.452;2022-10-28T09:39:02;16.20;77.10
2783;DHT22;1399;47.072;15.452;2022-10-28T09:41:40;16.30;76.80
2783;DHT22;1399;47.072;15.452;2022-10-28T09:44:20;16.30;76.40
2783;DHT22;1399;47.072;15.452;2022-10-28T09:46:58;16.30;76.40
2783;DHT22;1399;47.072;15.452;2022-10-28T09:49:27;16.20;76.40
2783;DHT22;1399;47.072;15.452;2022-10-28T09:54:35;16.20;76.90
2783;DHT22;1399;47.072;15.452;2022-10-28T09:57:03;16.10;76.90
2783;DHT22;1399;47.072;15.452;2022-10-28T09:59:29;16.10;77.10
2783;DHT22;1399;47.072;15.452;2022-10-28T10:01:55;16.10;77.30
2783;DHT22;1399;47.072;15.452;2022-10-28T10:04:26;16.10;77.50
2783;DHT22;1399;47.072;15.452;2022-10-28T10:07:01;16.10;77.60
2783;DHT22;1399;47.072;15.452;2022-10-28T10:09:30;16.10;77.60
2783;DHT22;1399;47.072;15.452;2022-10-28T10:12:07;16.10;77.70
2783;DHT22;1399;47.072;15.452;2022-10-28T10:14:54;16.10;77.80
2783;DHT22;1399;47.072;15.452;2022-10-28T10:17:26;16.10;77.90
2783;DHT22;1399;47.072;15.452;2022-10-28T10:20:00;16.10;77.80
2783;DHT22;1399;47.072;15.452;2022-10-28T10:22:35;16.10;77.90
2783;DHT22;1399;47.072;15.452;2022-10-28T10:25:12;16.20;78.00
2783;DHT22;1399;47.072;15.452;2022-10-28T10:28:15;16.10;77.90
2783;DHT22;1399;47.072;15.452;2022-10-28T10:30:48;16.20;78.10
2783;DHT22;1399;47.072;15.452;2022-10-28T10:38:34;16.20;78.30
2783;DHT22;1399;47.072;15.452;2022-10-28T10:41:00;16.20;78.40
2783;DHT22;1399;47.072;15.452;2022-10-28T10:43:30;16.20;78.40
2783;DHT22;1399;47.072;15.452;2022-10-28T10:46:14;16.20;78.40
2783;DHT22;1399;47.072;15.452;2022-10-28T10:48:41;16.20;78.40
2783;DHT22;1399;47.072;15.452;2022-10-28T10:53:37;16.30;78.60
2783;DHT22;1399;47.072;15.452;2022-10-28T10:56:07;16.20;78.50
2783;DHT22;1399;47.072;15.452;2022-10-28T10:58:39;16.30;78.60
2783;DHT22;1399;47.072;15.452;2022-10-28T11:01:35;16.30;78.60
2783;DHT22;1399;47.072;15.452;2022-10-28T11:04:05;16.30;78.50
2783;DHT22;1399;47.072;15.452;2022-10-28T11:06:35;16.30;78.50
2783;DHT22;1399;47.072;15.452;2022-10-28T11:09:04;16.30;78.50
2783;DHT22;1399;47.072;15.452;2022-10-28T11:11:34;16.30;78.50
2783;DHT22;1399;47.072;15.452;2022-10-28T11:16:29;16.40;78.70
2783;DHT22;1399;47.072;15.452;2022-10-28T11:18:55;16.40;78.60
2783;DHT22;1399;47.072;15.452;2022-10-28T11:21:43;16.40;78.60
2783;DHT22;1399;47.072;15.452;2022-10-28T11:29:23;16.40;78.70
2783;DHT22;1399;47.072;15.452;2022-10-28T11:35:00;16.40;78.70
2783;DHT22;1399;47.072;15.452;2022-10-28T11:43:15;16.50;78.90
2783;DHT22;1399;47.072;15.452;2022-10-28T11:46:43;16.50;78.90
2783;DHT22;1399;47.072;15.452;2022-10-28T11:57:17;16.50;78.90
2783;DHT22;1399;47.072;15.452;2022-10-28T12:06:11;16.60;78.80
2783;DHT22;1399;47.072;15.452;2022-10-28T12:14:26;16.60;78.80
2783;DHT22;1399;47.072;15.452;2022-10-28T12:17:08;16.70;78.90
2783;DHT22;1399;47.072;15.452;2022-10-28T12:19:50;16.70;78.90
2783;DHT22;1399;47.072;15.452;2022-10-28T12:22:22;16.70;78.90
2783;DHT22;1399;47.072;15.452;2022-10-28T12:24:50;16.70;78.90
2783;DHT22;1399;47.072;15.452;2022-10-28T12:27:33;16.70;78.90
2783;DHT22;1399;47.072;15.452;2022-10-28T12:30:24;16.70;79.00
2783;DHT22;1399;47.072;15.452;2022-10-28T12:33:23;16.70;79.00
2783;DHT22;1399;47.072;15.452;2022-10-28T12:36:17;16.80;79.20
2783;DHT22;1399;47.072;15.452;2022-10-28T12:44:22;16.80;79.20
2783;DHT22;1399;47.072;15.452;2022-10-28T12:47:04;16.80;79.20
2783;DHT22;1399;47.072;15.452;2022-10-28T12:57:37;16.80;80.00
2783;DHT22;1399;47.072;15.452;2022-10-28T13:03:03;16.90;79.40
2783;DHT22;1399;47.072;15.452;2022-10-28T13:05:47;16.90;79.50
2783;DHT22;1399;47.072;15.452;2022-10-28T13:11:33;16.90;79.60
2783;DHT22;1399;47.072;15.452;2022-10-28T13:14:33;16.90;79.50
2783;DHT22;1399;47.072;15.452;2022-10-28T13:28:00;16.90;79.90
2783;DHT22;1399;47.072;15.452;2022-10-28T13:30:27;16.90;80.00
2783;DHT22;1399;47.072;15.452;2022-10-28T13:33:04;16.90;80.10
2783;DHT22;1399;47.072;15.452;2022-10-28T13:35:30;16.90;80.20
2783;DHT22;1399;47.072;15.452;2022-10-28T13:37:58;16.90;80.20
2783;DHT22;1399;47.072;15.452;2022-10-28T13:42:58;17.00;80.50
2783;DHT22;1399;47.072;15.452;2022-10-28T13:53:39;17.00;80.60
2783;DHT22;1399;47.072;15.452;2022-10-28T13:56:31;17.00;80.60
2783;DHT22;1399;47.072;15.452;2022-10-28T13:59:03;17.00;80.60
2783;DHT22;1399;47.072;15.452;2022-10-28T14:01:56;17.00;80.60
2783;DHT22;1399;47.072;15.452;2022-10-28T14:04:28;17.00;80.70
2783;DHT22;1399;47.072;15.452;2022-10-28T14:07:25;17.00;80.70
2783;DHT22;1399;47.072;15.452;2022-10-28T14:09:56;17.00;80.80
2783;DHT22;1399;47.072;15.452;2022-10-28T14:12:32;17.00;80.80
2783;DHT22;1399;47.072;15.452;2022-10-28T14:17:39;17.00;80.90
2783;DHT22;1399;47.072;15.452;2022-10-28T14:20:35;17.00;80.90
2783;DHT22;1399;47.072;15.452;2022-10-28T14:44:14;17.00;81.20
2783;DHT22;1399;47.072;15.452;2022-10-28T14:46:53;17.00;81.20
2783;DHT22;1399;47.072;15.452;2022-10-28T14:49:32;17.00;81.30
2783;DHT22;1399;47.072;15.452;2022-10-28T14:52:18;17.00;81.30
2783;DHT22;1399;47.072;15.452;2022-10-28T14:54:59;17.00;81.40
2783;DHT22;1399;47.072;15.452;2022-10-28T14:57:32;16.90;81.30
2783;DHT22;1399;47.072;15.452;2022-10-28T15:00:03;16.90;81.30
2783;DHT22;1399;47.072;15.452;2022-10-28T15:02:31;16.90;81.40
2783;DHT22;1399;47.072;15.452;2022-10-28T15:05:20;16.90;81.40
2783;DHT22;1399;47.072;15.452;2022-10-28T15:07:48;16.90;81.60
2783;DHT22;1399;47.072;15.452;2022-10-28T15:10:16;16.90;81.50
2783;DHT22;1399;47.072;15.452;2022-10-28T15:12:46;16.90;81.60
2783;DHT22;1399;47.072;15.452;2022-10-28T15:17:45;16.90;81.70
2783;DHT22;1399;47.072;15.452;2022-10-28T15:20:21;16.90;81.70
2783;DHT22;1399;47.072;15.452;2022-10-28T15:22:48;16.90;81.70
2783;DHT22;1399;47.072;15.452;2022-10-28T15:25:17;16.90;81.80
2783;DHT22;1399;47.072;15.452;2022-10-28T15:27:44;16.80;81.80
2783;DHT22;1399;47.072;15.452;2022-10-28T15:30:18;16.80;81.90
2783;DHT22;1399;47.072;15.452;2022-10-28T15:32:45;16.80;81.90
2783;DHT22;1399;47.072;15.452;2022-10-28T15:35:35;16.80;81.90
2783;DHT22;1399;47.072;15.452;2022-10-28T15:40:49;16.80;82.10
2783;DHT22;1399;47.072;15.452;2022-10-28T15:43:22;16.80;82.20
2783;DHT22;1399;47.072;15.452;2022-10-28T15:45:49;16.80;82.20
2783;DHT22;1399;47.072;15.452;2022-10-28T15:48:23;16.70;82.10
2783;DHT22;1399;47.072;15.452;2022-10-28T15:53:44;16.70;82.30
2783;DHT22;1399;47.072;15.452;2022-10-28T15:58:40;16.70;82.40
2783;DHT22;1399;47.072;15.452;2022-10-28T16:01:11;16.70;82.50
2783;DHT22;1399;47.072;15.452;2022-10-28T16:03:50;16.60;82.40
2783;DHT22;1399;47.072;15.452;2022-10-28T16:06:25;16.60;82.50
2783;DHT22;1399;47.072;15.452;2022-10-28T16:09:19;16.60;82.50
2783;DHT22;1399;47.072;15.452;2022-10-28T16:11:51;16.60;82.70
2783;DHT22;1399;47.072;15.452;2022-10-28T16:14:35;16.60;82.70
2783;DHT22;1399;47.072;15.452;2022-10-28T16:19:38;16.50;82.80
2783;DHT22;1399;47.072;15.452;2022-10-28T16:22:04;16.50;82.90
2783;DHT22;1399;47.072;15.452;2022-10-28T16:24:30;16.50;82.90
2783;DHT22;1399;47.072;15.452;2022-10-28T16:27:18;16.50;83.00
2783;DHT22;1399;47.072;15.452;2022-10-28T16:29:44;16.50;83.10
2783;DHT22;1399;47.072;15.452;2022-10-28T16:32:11;16.50;83.20
2783;DHT22;1399;47.072;15.452;2022-10-28T16:34:37;16.40;83.20
2783;DHT22;1399;47.072;15.452;2022-10-28T16:37:28;16.40;83.30
2783;DHT22;1399;47.072;15.452;2022-10-28T16:39:54;16.40;83.30
2783;DHT22;1399;47.072;15.452;2022-10-28T16:42:21;16.40;83.50
2783;DHT22;1399;47.072;15.452;2022-10-28T16:44:47;16.40;83.60
2783;DHT22;1399;47.072;15.452;2022-10-28T16:47:16;16.40;83.70
2783;DHT22;1399;47.072;15.452;2022-10-28T16:49:42;16.40;83.80
2783;DHT22;1399;47.072;15.452;2022-10-28T16:52:15;16.40;83.90
2783;DHT22;1399;47.072;15.452;2022-10-28T16:54:42;16.40;83.90
2783;DHT22;1399;47.072;15.452;2022-10-28T16:57:08;16.40;84.00
2783;DHT22;1399;47.072;15.452;2022-10-28T16:59:34;16.30;84.10
2783;DHT22;1399;47.072;15.452;2022-10-28T17:01:59;16.30;84.30
2783;DHT22;1399;47.072;15.452;2022-10-28T17:04:25;16.30;84.50
2783;DHT22;1399;47.072;15.452;2022-10-28T17:06:51;16.30;84.80
2783;DHT22;1399;47.072;15.452;2022-10-28T17:09:17;16.30;85.00
2783;DHT22;1399;47.072;15.452;2022-10-28T17:11:43;16.30;85.20
2783;DHT22;1399;47.072;15.452;2022-10-28T17:14:09;16.30;85.40
2783;DHT22;1399;47.072;15.452;2022-10-28T17:16:35;16.30;85.60
2783;DHT22;1399;47.072;15.452;2022-10-28T17:19:01;16.20;85.60
2783;DHT22;1399;47.072;15.452;2022-10-28T17:21:27;16.20;86.60
2783;DHT22;1399;47.072;15.452;2022-10-28T17:23:53;16.20;85.80
2783;DHT22;1399;47.072;15.452;2022-10-28T17:26:19;16.20;86.40
2783;DHT22;1399;47.072;15.452;2022-10-28T17:28:52;16.20;86.10
2783;DHT22;1399;47.072;15.452;2022-10-28T17:31:18;16.20;86.30
2783;DHT22;1399;47.072;15.452;2022-10-28T17:33:45;16.20;86.40
2783;DHT22;1399;47.072;15.452;2022-10-28T17:36:11;16.20;86.50
2783;DHT22;1399;47.072;15.452;2022-10-28T17:38:37;16.20;86.60
2783;DHT22;1399;47.072;15.452;2022-10-28T17:41:03;16.20;86.70
2783;DHT22;1399;47.072;15.452;2022-10-28T17:43:29;16.10;86.70
2783;DHT22;1399;47.072;15.452;2022-10-28T17:46:03;16.10;86.80
2783;DHT22;1399;47.072;15.452;2022-10-28T17:48:30;16.10;87.00
2783;DHT22;1399;47.072;15.452;2022-10-28T17:50:56;16.10;87.10
2783;DHT22;1399;47.072;15.452;2022-10-28T17:53:21;16.10;87.10
2783;DHT22;1399;47.072;15.452;2022-10-28T17:56:03;16.10;87.20
2783;DHT22;1399;47.072;15.452;2022-10-28T17:58:30;16.00;87.10
2783;DHT22;1399;47.072;15.452;2022-10-28T18:01:07;16.00;87.20
2783;DHT22;1399;47.072;15.452;2022-10-28T18:03:33;16.00;87.20
2783;DHT22;1399;47.072;15.452;2022-10-28T18:06:09;16.00;87.30
2783;DHT22;1399;47.072;15.452;2022-10-28T18:08:40;16.00;87.40
2783;DHT22;1399;47.072;15.452;2022-10-28T18:11:09;16.00;87.40
2783;DHT22;1399;47.072;15.452;2022-10-28T18:13:38;16.00;87.50
2783;DHT22;1399;47.072;15.452;2022-10-28T18:16:10;16.00;87.50
2783;DHT22;1399;47.072;15.452;2022-10-28T18:18:37;16.00;87.60
2783;DHT22;1399;47.072;15.452;2022-10-28T18:21:03;15.90;87.50
2783;DHT22;1399;47.072;15.452;2022-10-28T18:23:29;15.90;87.60
2783;DHT22;1399;47.072;15.452;2022-10-28T18:25:57;15.90;87.60
2783;DHT22;1399;47.072;15.452;2022-10-28T18:28:26;15.90;87.70
2783;DHT22;1399;47.072;15.452;2022-10-28T18:30:53;15.90;87.70
2783;DHT22;1399;47.072;15.452;2022-10-28T18:33:19;15.90;87.70
2783;DHT22;1399;47.072;15.452;2022-10-28T18:35:45;15.90;87.80
2783;DHT22;1399;47.072;15.452;2022-10-28T18:38:12;15.90;87.80
2783;DHT22;1399;47.072;15.452;2022-10-28T18:40:48;15.90;87.80
2783;DHT22;1399;47.072;15.452;2022-10-28T18:43:14;15.80;87.70
2783;DHT22;1399;47.072;15.452;2022-10-28T18:45:40;15.80;87.70
2783;DHT22;1399;47.072;15.452;2022-10-28T18:48:07;15.80;87.70
2783;DHT22;1399;47.072;15.452;2022-10-28T18:50:33;15.80;87.80
2783;DHT22;1399;47.072;15.452;2022-10-28T18:52:59;15.80;87.80
2783;DHT22;1399;47.072;15.452;2022-10-28T18:55:25;15.80;87.80
2783;DHT22;1399;47.072;15.452;2022-10-28T18:57:51;15.80;87.80
2783;DHT22;1399;47.072;15.452;2022-10-28T19:00:18;15.80;87.80
2783;DHT22;1399;47.072;15.452;2022-10-28T19:02:44;15.80;87.80